Time;durP1;ratioP1;P1;durP2;ratioP2;P2;SDS_P1;SDS_P2;PMS_P1;PMS_P2;Temp;Humidity;BMP_temperature;BMP_pressure;BME280_temperature;BME280_humidity;BME280_pressure;Samples;Min_cycle;Max_cycle;Signal;HPM_P1;HPM_P2
2023/01/26 00:01:15;;;;;;;52.72;28.48;;;2.90;99.90;;;;;;4906180;29;20052;-78
2023/01/26 00:03:41;;;;;;;56.90;26.92;;;2.90;99.90;;;;;;4911631;29;20063;-77
2023/01/26 00:06:11;;;;;;;53.22;27.77;;;2.90;99.90;;;;;;4909456;29;20514;-78
2023/01/26 00:08:39;;;;;;;53.72;27.17;;;2.90;99.90;;;;;;4903525;29;20059;-78
2023/01/26 00:11:07;;;;;;;50.72;26.33;;;2.90;99.90;;;;;;4906040;29;20040;-78
2023/01/26 00:13:35;;;;;;;50.50;28.30;;;2.90;99.90;;;;;;4914097;29;20159;-78
2023/01/26 00:16:02;;;;;;;49.20;26.95;;;2.80;99.90;;;;;;4911697;29;20139;-78
2023/01/26 00:18:30;;;;;;;48.75;26.42;;;2.90;99.90;;;;;;4894851;29;20143;-77
2023/01/26 00:20:58;;;;;;;51.40;27.70;;;2.90;99.90;;;;;;4917432;29;20141;-77
2023/01/26 00:23:25;;;;;;;49.83;27.30;;;2.90;99.90;;;;;;4908972;29;20071;-77
2023/01/26 00:25:52;;;;;;;51.08;27.65;;;2.90;99.90;;;;;;4909499;29;20053;-77
2023/01/26 00:28:18;;;;;;;47.45;26.20;;;2.90;99.90;;;;;;4909100;29;20139;-77
2023/01/26 00:30:45;;;;;;;46.45;25.88;;;2.90;99.90;;;;;;4911579;29;20430;-78
2023/01/26 00:33:12;;;;;;;51.20;26.67;;;2.90;99.90;;;;;;4910071;29;20095;-77
2023/01/26 00:35:43;;;;;;;53.08;26.35;;;2.80;99.90;;;;;;4904693;29;20470;-77
2023/01/26 00:38:11;;;;;;;54.95;28.77;;;2.80;99.90;;;;;;4901699;29;20052;-77
2023/01/26 00:40:38;;;;;;;52.90;26.30;;;2.80;99.90;;;;;;4915019;29;20115;-77
2023/01/26 00:43:06;;;;;;;43.22;24.10;;;2.70;99.90;;;;;;4913859;29;20131;-77
2023/01/26 00:45:34;;;;;;;54.58;27.63;;;2.70;99.90;;;;;;4913160;29;20044;-77
2023/01/26 00:48:01;;;;;;;53.55;26.30;;;2.70;99.90;;;;;;4915503;29;20048;-77
2023/01/26 00:50:28;;;;;;;49.72;27.95;;;2.70;99.90;;;;;;4909981;29;20049;-77
2023/01/26 00:52:54;;;;;;;48.47;27.55;;;2.70;99.90;;;;;;4907139;29;20487;-78
2023/01/26 00:55:21;;;;;;;49.45;25.95;;;2.70;99.90;;;;;;4906383;29;20135;-77
2023/01/26 00:57:48;;;;;;;51.22;28.08;;;2.60;99.90;;;;;;4895786;29;20048;-77
2023/01/26 01:00:19;;;;;;;47.70;27.50;;;2.70;99.90;;;;;;4899830;29;20418;-77
2023/01/26 01:02:45;;;;;;;;;;;2.70;99.90;;;;;;4909201;29;20263;-77
2023/01/26 01:05:12;;;;;;;56.72;28.88;;;2.70;99.90;;;;;;4905345;29;19923;-77
2023/01/26 01:07:38;;;;;;;55.20;27.63;;;2.70;99.90;;;;;;4910438;29;20048;-77
2023/01/26 01:10:07;;;;;;;55.42;28.92;;;2.70;99.90;;;;;;4912663;29;20051;-77
2023/01/26 01:12:34;;;;;;;56.78;27.60;;;2.70;99.90;;;;;;4911421;29;20058;-77
2023/01/26 01:15:01;;;;;;;56.03;29.33;;;2.80;99.90;;;;;;4913602;29;20059;-77
2023/01/26 01:17:27;;;;;;;56.22;28.70;;;2.70;99.90;;;;;;4907726;29;20056;-78
2023/01/26 01:19:54;;;;;;;58.70;29.42;;;2.70;99.90;;;;;;4905446;29;20064;-77
2023/01/26 01:22:21;;;;;;;58.85;30.60;;;2.70;99.90;;;;;;4904735;29;20082;-77
2023/01/26 01:24:47;;;;;;;58.40;30.98;;;2.60;99.90;;;;;;4890363;29;20135;-78
2023/01/26 01:27:14;;;;;;;67.80;31.13;;;2.70;99.90;;;;;;4909901;29;20066;-77
2023/01/26 01:29:41;;;;;;;60.97;30.02;;;2.70;99.90;;;;;;4914301;29;20048;-77
2023/01/26 01:32:07;;;;;;;66.95;32.05;;;2.70;99.90;;;;;;4895348;29;20044;-77
2023/01/26 01:34:34;;;;;;;64.07;32.00;;;2.70;99.90;;;;;;4905483;29;20091;-77
2023/01/26 01:37:01;;;;;;;57.03;31.10;;;2.70;99.90;;;;;;4908350;29;20048;-77
2023/01/26 01:39:27;;;;;;;62.40;30.50;;;2.60;99.90;;;;;;4908802;29;20059;-77
2023/01/26 01:41:54;;;;;;;55.63;28.60;;;2.70;99.90;;;;;;4911622;29;20057;-78
2023/01/26 01:44:22;;;;;;;61.33;31.48;;;2.60;99.90;;;;;;4889132;29;20127;-77
2023/01/26 01:47:00;;;;;;;64.13;30.15;;;2.70;99.90;;;;;;4904125;29;20064;-77
2023/01/26 01:49:33;;;;;;;57.97;29.67;;;2.60;99.90;;;;;;4907150;29;20049;-77
2023/01/26 01:52:09;;;;;;;57.28;29.40;;;2.70;99.90;;;;;;4913793;29;20052;-78
2023/01/26 01:54:53;;;;;;;60.33;30.30;;;2.70;99.90;;;;;;4912048;29;20055;-77
2023/01/26 01:57:30;;;;;;;67.03;33.65;;;2.80;99.90;;;;;;4912933;29;20118;-77
2023/01/26 02:00:08;;;;;;;58.60;30.05;;;2.80;99.90;;;;;;4909906;29;20076;-78
2023/01/26 02:02:37;;;;;;;63.40;30.63;;;2.80;99.90;;;;;;4905315;29;20135;-78
2023/01/26 02:05:16;;;;;;;62.65;30.92;;;2.80;99.90;;;;;;4905783;29;20040;-77
2023/01/26 02:07:44;;;;;;;57.70;30.33;;;2.90;99.90;;;;;;4891977;29;20048;-77
2023/01/26 02:10:20;;;;;;;53.60;28.95;;;2.90;99.90;;;;;;4898919;29;20521;-77
2023/01/26 02:12:50;;;;;;;56.20;29.30;;;2.90;99.90;;;;;;4889724;29;20503;-77
2023/01/26 02:15:17;;;;;;;;;;;2.90;99.90;;;;;;4911522;29;20066;-77
2023/01/26 02:17:44;;;;;;;53.35;28.50;;;2.90;99.90;;;;;;4907641;29;19931;-78
2023/01/26 02:20:27;;;;;;;64.72;30.48;;;3.00;99.90;;;;;;4909274;29;20656;-77
2023/01/26 02:23:04;;;;;;;62.22;31.50;;;3.00;99.90;;;;;;4910773;29;20052;-77
2023/01/26 02:25:52;;;;;;;56.40;29.05;;;3.00;99.90;;;;;;4910065;29;20143;-78
2023/01/26 02:28:25;;;;;;;55.20;29.00;;;3.00;99.90;;;;;;4890889;29;20191;-78
2023/01/26 02:30:53;;;;;;;53.40;24.70;;;2.90;99.90;;;;;;4901362;29;20090;-77
2023/01/26 02:33:22;;;;;;;59.17;27.58;;;2.90;99.90;;;;;;4904826;29;20049;-77
2023/01/26 02:35:49;;;;;;;56.50;28.75;;;2.90;99.90;;;;;;4892610;29;20514;-78
2023/01/26 02:38:17;;;;;;;60.03;28.35;;;2.80;99.90;;;;;;4892752;29;20486;-77
2023/01/26 02:40:55;;;;;;;55.00;26.63;;;2.90;99.90;;;;;;4894334;29;20096;-77
2023/01/26 02:43:25;;;;;;;61.05;28.88;;;2.80;99.90;;;;;;4895361;29;20131;-77
2023/01/26 02:45:51;;;;;;;60.22;28.38;;;2.80;99.90;;;;;;4906009;29;20051;-78
2023/01/26 02:51:04;;;;;;;57.80;28.35;;;2.80;99.90;;;;;;4909930;29;20131;-77
2023/01/26 02:53:31;;;;;;;55.92;26.58;;;2.80;99.90;;;;;;4905817;29;20127;-78
2023/01/26 02:55:58;;;;;;;49.58;26.85;;;2.80;99.90;;;;;;4887568;29;20059;-77
2023/01/26 02:58:25;;;;;;;49.92;24.98;;;2.80;99.90;;;;;;4899786;29;20056;-77
2023/01/26 03:00:51;;;;;;;47.40;24.48;;;2.70;99.90;;;;;;4910934;29;20057;-78
2023/01/26 03:03:22;;;;;;;53.38;25.75;;;2.80;99.90;;;;;;4909531;29;20060;-77
2023/01/26 03:05:49;;;;;;;52.83;25.85;;;2.80;99.90;;;;;;4909528;29;20055;-78
2023/01/26 03:08:16;;;;;;;49.40;25.10;;;2.80;99.90;;;;;;4911392;29;20399;-77
2023/01/26 03:10:43;;;;;;;45.60;24.98;;;2.80;99.90;;;;;;4904943;29;20668;-77
2023/01/26 03:13:10;;;;;;;49.33;25.35;;;2.70;99.90;;;;;;4895915;29;20059;-77
2023/01/26 03:15:42;;;;;;;48.33;24.42;;;2.80;99.90;;;;;;4885771;29;20454;-78
2023/01/26 03:29:16;;;;;;;43.75;23.00;;;2.70;99.90;;;;;;4904895;29;20116;-77
2023/01/26 03:31:43;;;;;;;45.65;23.80;;;2.60;99.90;;;;;;4906322;29;20052;-77
2023/01/26 03:34:09;;;;;;;46.50;23.88;;;2.50;99.90;;;;;;4908750;29;20528;-78
2023/01/26 03:36:36;;;;;;;42.88;23.33;;;2.50;99.90;;;;;;4906581;29;20078;-78
2023/01/26 03:39:04;;;;;;;48.75;23.25;;;2.40;99.90;;;;;;4906142;29;20079;-78
2023/01/26 03:58:03;;;;;;;39.33;21.02;;;2.40;99.90;;;;;;4909814;29;20048;-77
2023/01/26 04:00:30;;;;;;;41.78;23.02;;;2.40;99.90;;;;;;4910476;29;20088;-77
2023/01/26 04:08:43;;;;;;;44.03;22.25;;;2.30;99.90;;;;;;4905855;29;20048;-77
2023/01/26 04:11:10;;;;;;;41.08;22.63;;;2.40;99.90;;;;;;4914675;29;20100;-78
2023/01/26 04:21:52;;;;;;;37.38;20.27;;;2.40;99.90;;;;;;4907860;29;20139;-77
2023/01/26 04:24:21;;;;;;;38.83;19.55;;;2.30;99.90;;;;;;4904471;29;20116;-77
2023/01/26 04:26:48;;;;;;;41.83;21.25;;;2.30;99.90;;;;;;4905099;29;20060;-78
2023/01/26 04:29:15;;;;;;;39.00;19.55;;;2.30;99.90;;;;;;4911763;29;20414;-77
2023/01/26 04:31:42;;;;;;;39.20;20.85;;;2.40;99.90;;;;;;4907330;29;20502;-77
2023/01/26 04:34:13;;;;;;;38.20;20.90;;;2.30;99.90;;;;;;4912201;29;20485;-77
2023/01/26 04:36:41;;;;;;;31.75;17.83;;;2.30;99.90;;;;;;4907809;29;20057;-77
2023/01/26 04:39:08;;;;;;;36.45;19.30;;;2.20;99.90;;;;;;4907615;29;20058;-77
2023/01/26 04:41:35;;;;;;;36.60;19.38;;;2.20;99.90;;;;;;4909282;29;20501;-78
2023/01/26 04:44:02;;;;;;;32.13;18.70;;;2.20;99.90;;;;;;4911264;29;20044;-78
2023/01/26 04:46:29;;;;;;;32.90;18.17;;;2.10;99.90;;;;;;4889560;29;20127;-77
2023/01/26 04:48:55;;;;;;;29.23;17.17;;;2.10;99.90;;;;;;4903624;29;20140;-77
2023/01/26 04:51:22;;;;;;;34.63;18.38;;;2.10;99.90;;;;;;4902079;29;20045;-78
2023/01/26 04:53:49;;;;;;;30.40;18.02;;;2.10;99.90;;;;;;4909337;29;20410;-78
2023/01/26 04:56:26;;;;;;;29.88;16.70;;;2.10;99.90;;;;;;4913210;29;20058;-77
2023/01/26 04:58:54;;;;;;;34.78;19.05;;;2.10;99.90;;;;;;4913131;29;20052;-77
2023/01/26 05:01:21;;;;;;;33.22;16.70;;;2.00;99.90;;;;;;4913994;29;20135;-77
2023/01/26 05:03:48;;;;;;;32.53;17.75;;;1.90;99.90;;;;;;4908834;29;20056;-78
2023/01/26 05:06:15;;;;;;;35.17;18.92;;;1.90;99.90;;;;;;4905746;29;20056;-77
2023/01/26 05:08:42;;;;;;;36.83;19.80;;;2.00;99.90;;;;;;4887247;29;20064;-77
2023/01/26 05:11:09;;;;;;;34.92;19.38;;;2.00;99.90;;;;;;4901136;29;20078;-77
2023/01/26 05:13:36;;;;;;;35.33;18.88;;;2.00;99.90;;;;;;4908998;29;20536;-77
2023/01/26 05:16:04;;;;;;;37.40;19.00;;;2.10;99.90;;;;;;4905957;29;20052;-77
2023/01/26 05:18:31;;;;;;;30.67;16.90;;;2.10;99.90;;;;;;4901449;29;20135;-77
2023/01/26 05:20:57;;;;;;;30.85;17.60;;;2.10;99.90;;;;;;4910084;29;20144;-78
2023/01/26 05:23:24;;;;;;;31.23;16.05;;;2.10;99.90;;;;;;4908377;29;20084;-77
2023/01/26 05:25:51;;;;;;;32.53;13.93;;;2.10;99.90;;;;;;4910167;29;20530;-77
2023/01/26 05:28:17;;;;;;;27.27;15.23;;;2.10;99.90;;;;;;4910624;29;20490;-78
2023/01/26 05:30:45;;;;;;;29.15;15.52;;;2.10;99.90;;;;;;4890796;29;20049;-77
2023/01/26 05:33:12;;;;;;;27.33;14.65;;;2.10;99.90;;;;;;4904289;29;20281;-77
2023/01/26 05:35:39;;;;;;;24.25;12.88;;;2.10;99.90;;;;;;4903757;29;20048;-77
2023/01/26 05:38:05;;;;;;;24.23;13.73;;;2.00;99.90;;;;;;4910035;29;20044;-77
2023/01/26 05:40:32;;;;;;;21.65;13.10;;;2.00;99.90;;;;;;4909087;29;20059;-77
2023/01/26 05:42:59;;;;;;;26.50;14.10;;;1.90;99.90;;;;;;4894439;29;20094;-77
2023/01/26 05:45:26;;;;;;;24.10;13.40;;;1.90;99.90;;;;;;4913974;29;20048;-77
2023/01/26 05:47:53;;;;;;;22.58;12.80;;;1.90;99.90;;;;;;4907302;29;20091;-78
2023/01/26 05:50:19;;;;;;;25.23;14.18;;;1.90;99.90;;;;;;4905806;29;20056;-77
2023/01/26 05:52:46;;;;;;;26.35;14.20;;;1.80;99.90;;;;;;4907192;29;20052;-77
2023/01/26 05:55:13;;;;;;;27.75;15.55;;;1.80;99.90;;;;;;4910353;29;20048;-77
2023/01/26 05:57:40;;;;;;;24.38;14.43;;;1.80;99.90;;;;;;4907412;29;20102;-78
2023/01/26 06:00:08;;;;;;;26.00;14.57;;;1.90;99.90;;;;;;4903459;29;20048;-76
2023/01/26 06:02:36;;;;;;;27.00;14.40;;;1.90;99.90;;;;;;4883390;29;20098;-78
2023/01/26 06:05:03;;;;;;;24.50;13.10;;;1.90;99.90;;;;;;4897609;29;20059;-77
2023/01/26 06:07:30;;;;;;;25.83;12.57;;;2.00;99.90;;;;;;4910779;29;20118;-77
2023/01/26 06:09:57;;;;;;;20.83;11.65;;;1.90;99.90;;;;;;4911548;29;20076;-77
2023/01/26 06:12:24;;;;;;;23.98;13.13;;;1.80;99.90;;;;;;4909751;29;20135;-77
2023/01/26 06:14:51;;;;;;;26.02;14.55;;;1.70;99.90;;;;;;4904940;29;20056;-77
2023/01/26 06:17:17;;;;;;;24.30;13.43;;;1.70;99.90;;;;;;4902715;29;20060;-77
2023/01/26 06:19:44;;;;;;;31.45;16.08;;;1.60;99.90;;;;;;4888612;29;20048;-77
2023/01/26 06:22:12;;;;;;;23.90;12.48;;;1.60;99.90;;;;;;4903604;29;20074;-77
2023/01/26 06:24:38;;;;;;;22.50;12.60;;;1.60;99.90;;;;;;4909349;29;20139;-77
2023/01/26 06:27:13;;;;;;;23.17;12.68;;;1.60;99.90;;;;;;4905145;29;20043;-77
2023/01/26 06:29:41;;;;;;;23.73;13.18;;;1.50;99.90;;;;;;4903574;29;20081;-77
2023/01/26 06:32:12;;;;;;;24.85;14.05;;;1.50;99.90;;;;;;4907866;29;20490;-77
2023/01/26 06:34:39;;;;;;;23.80;13.68;;;1.50;99.90;;;;;;4911432;29;20088;-77
2023/01/26 06:37:06;;;;;;;25.15;13.82;;;1.40;99.90;;;;;;4909473;29;20075;-77
2023/01/26 06:39:33;;;;;;;30.98;15.80;;;1.50;99.90;;;;;;4909112;29;20434;-77
2023/01/26 06:41:59;;;;;;;30.05;16.30;;;1.40;99.90;;;;;;4896315;29;20511;-77
2023/01/26 06:44:26;;;;;;;25.98;14.20;;;1.40;99.90;;;;;;4898812;29;20598;-78
2023/01/26 06:46:53;;;;;;;28.35;14.88;;;1.40;99.90;;;;;;4887363;29;20159;-78
2023/01/26 06:49:19;;;;;;;30.77;15.63;;;1.40;99.90;;;;;;4896626;29;20108;-77
2023/01/26 06:52:02;;;;;;;25.33;14.88;;;1.40;99.90;;;;;;4908239;29;20087;-78
2023/01/26 06:54:28;;;;;;;29.35;16.58;;;1.40;99.90;;;;;;4912384;29;20456;-78
2023/01/26 06:56:55;;;;;;;51.47;27.40;;;1.40;99.90;;;;;;4908380;29;20095;-78
2023/01/26 06:59:22;;;;;;;30.90;17.10;;;1.50;99.90;;;;;;4898195;29;20057;-78
2023/01/26 07:01:48;;;;;;;29.70;16.40;;;1.50;99.90;;;;;;4906202;29;20510;-78
2023/01/26 07:04:16;;;;;;;27.90;15.55;;;1.50;99.90;;;;;;4908290;29;20486;-77
2023/01/26 07:06:42;;;;;;;30.98;16.63;;;1.50;99.90;;;;;;4908989;29;20138;-77
2023/01/26 07:09:09;;;;;;;27.40;15.27;;;1.40;99.90;;;;;;4898609;29;20058;-77
2023/01/26 07:11:36;;;;;;;32.80;16.25;;;1.40;99.90;;;;;;4902175;29;20095;-78
2023/01/26 07:14:03;;;;;;;29.75;15.98;;;1.40;99.90;;;;;;4893859;29;20047;-77
2023/01/26 07:16:30;;;;;;;28.10;15.73;;;1.40;99.90;;;;;;4908370;29;20059;-77
2023/01/26 07:18:59;;;;;;;30.10;16.58;;;1.40;99.90;;;;;;4916861;29;20520;-77
2023/01/26 07:21:26;;;;;;;26.63;14.45;;;1.40;99.90;;;;;;4923331;29;20090;-77
2023/01/26 07:23:54;;;;;;;29.35;15.43;;;1.40;99.90;;;;;;4912774;29;20099;-77
2023/01/26 07:26:21;;;;;;;27.58;14.50;;;1.40;99.90;;;;;;4915282;29;20048;-77
2023/01/26 07:28:48;;;;;;;25.73;14.40;;;1.30;99.90;;;;;;4919849;29;20048;-77
2023/01/26 07:31:14;;;;;;;33.53;16.10;;;1.40;99.90;;;;;;4914456;29;20127;-78
2023/01/26 07:33:41;;;;;;;29.23;15.35;;;1.40;99.90;;;;;;4909324;29;20049;-78
2023/01/26 07:36:09;;;;;;;26.50;14.38;;;1.30;99.90;;;;;;4905803;29;20044;-78
2023/01/26 07:38:36;;;;;;;28.48;15.35;;;1.30;99.90;;;;;;4905336;29;20052;-77
2023/01/26 07:41:05;;;;;;;23.70;13.23;;;1.30;99.90;;;;;;4910133;29;20048;-77
2023/01/26 07:43:34;;;;;;;31.67;16.35;;;1.20;99.90;;;;;;4893443;29;20527;-77
2023/01/26 07:46:01;;;;;;;29.65;13.98;;;1.20;99.90;;;;;;4908904;29;20498;-77
2023/01/26 07:48:30;;;;;;;30.90;15.43;;;1.20;99.90;;;;;;4890741;29;20060;-78
2023/01/26 07:50:59;;;;;;;30.27;16.20;;;1.20;99.90;;;;;;4908393;29;20396;-82
2023/01/26 07:53:28;;;;;;;28.02;14.63;;;1.10;99.90;;;;;;4903057;29;20099;-79
2023/01/26 07:56:05;;;;;;;29.23;15.98;;;1.20;99.90;;;;;;4907177;29;20044;-78
2023/01/26 07:58:34;;;;;;;30.50;14.52;;;1.20;99.90;;;;;;4910876;29;20072;-78
2023/01/26 08:01:12;;;;;;;29.65;14.32;;;1.20;99.90;;;;;;4911898;29;20095;-78
2023/01/26 08:03:40;;;;;;;27.83;16.02;;;1.20;99.90;;;;;;4911702;29;20130;-78
2023/01/26 08:06:07;;;;;;;27.27;14.25;;;1.10;99.90;;;;;;4912907;29;20075;-77
2023/01/26 08:08:40;;;;;;;25.98;13.38;;;1.10;99.90;;;;;;4888083;29;20053;-78
2023/01/26 08:11:08;;;;;;;25.10;14.00;;;1.20;99.90;;;;;;4904086;29;20098;-78
2023/01/26 08:13:35;;;;;;;28.10;15.57;;;1.10;99.90;;;;;;4906698;29;20056;-78
2023/01/26 08:16:05;;;;;;;26.85;14.98;;;1.20;99.90;;;;;;4910900;29;20044;-79
2023/01/26 08:18:31;;;;;;;26.38;15.38;;;1.20;99.90;;;;;;4906099;29;20052;-78
2023/01/26 08:20:59;;;;;;;30.23;16.05;;;1.20;99.90;;;;;;4901663;29;20072;-78
2023/01/26 08:23:26;;;;;;;34.50;15.02;;;1.30;99.90;;;;;;4906733;29;20064;-77
2023/01/26 08:25:53;;;;;;;24.02;14.02;;;1.30;99.90;;;;;;4895478;29;20056;-77
2023/01/26 08:28:20;;;;;;;24.88;12.57;;;1.20;99.90;;;;;;4912665;29;20139;-77
2023/01/26 08:30:46;;;;;;;27.50;15.00;;;1.20;99.90;;;;;;4911075;29;20514;-77
2023/01/26 08:33:13;;;;;;;25.98;15.00;;;1.20;99.90;;;;;;4911391;29;20048;-78
2023/01/26 08:35:40;;;;;;;28.98;15.10;;;1.20;99.90;;;;;;4906924;29;20049;-78
2023/01/26 08:38:07;;;;;;;30.20;15.10;;;1.20;99.90;;;;;;4904281;29;20047;-77
2023/01/26 08:40:33;;;;;;;26.33;15.18;;;1.30;99.90;;;;;;4903810;29;20116;-78
2023/01/26 08:43:01;;;;;;;28.00;15.10;;;1.30;99.90;;;;;;4891525;29;20072;-78
2023/01/26 08:45:29;;;;;;;25.10;14.18;;;1.30;99.90;;;;;;4894205;29;20055;-78
2023/01/26 08:47:58;;;;;;;26.58;14.60;;;1.30;99.90;;;;;;4897199;29;20111;-77
2023/01/26 08:50:25;;;;;;;24.95;14.98;;;1.40;99.90;;;;;;4910559;29;20059;-77
2023/01/26 08:52:55;;;;;;;24.25;14.88;;;1.30;99.90;;;;;;4909296;29;20107;-77
2023/01/26 08:55:21;;;;;;;28.75;14.13;;;1.40;99.90;;;;;;4909016;29;20052;-78
2023/01/26 08:57:53;;;;;;;30.05;15.85;;;1.40;99.90;;;;;;4895944;29;20053;-78
2023/01/26 09:00:22;;;;;;;33.50;16.55;;;1.40;99.90;;;;;;4910281;29;20088;-78
2023/01/26 09:02:49;;;;;;;24.40;15.48;;;1.50;99.90;;;;;;4908019;29;20780;-78
2023/01/26 09:05:16;;;;;;;23.58;13.63;;;1.50;99.90;;;;;;4911033;29;20067;-78
2023/01/26 09:07:43;;;;;;;24.75;13.65;;;1.50;99.90;;;;;;4894803;29;20131;-78
2023/01/26 09:10:10;;;;;;;26.58;13.98;;;1.50;99.90;;;;;;4912783;29;20127;-78
2023/01/26 09:12:37;;;;;;;26.60;14.75;;;1.40;99.90;;;;;;4913311;29;20044;-78
2023/01/26 09:15:07;;;;;;;25.52;14.52;;;1.40;99.90;;;;;;4893979;29;20080;-78
2023/01/26 09:17:34;;;;;;;26.75;13.82;;;1.40;99.90;;;;;;4892956;29;20057;-76
2023/01/26 09:20:01;;;;;;;31.05;15.65;;;1.40;99.90;;;;;;4891286;29;20052;-76
2023/01/26 09:22:29;;;;;;;30.02;15.88;;;1.40;99.90;;;;;;4904285;29;20052;-76
2023/01/26 09:24:56;;;;;;;27.45;14.73;;;1.40;99.90;;;;;;4907048;29;20066;-77
2023/01/26 09:27:23;;;;;;;26.15;14.95;;;1.30;99.90;;;;;;4893191;29;20055;-76
2023/01/26 09:29:49;;;;;;;27.75;15.40;;;1.40;99.90;;;;;;4889220;29;20419;-78
2023/01/26 09:32:16;;;;;;;25.75;14.82;;;1.40;99.90;;;;;;4886324;29;20044;-78
2023/01/26 09:34:43;;;;;;;29.77;16.55;;;1.40;99.90;;;;;;4906918;29;20131;-76
2023/01/26 09:37:11;;;;;;;23.83;12.32;;;1.40;99.90;;;;;;4903653;29;20131;-77
2023/01/26 09:39:38;;;;;;;25.98;14.13;;;1.40;99.90;;;;;;4908492;29;20084;-77
2023/01/26 09:42:26;;;;;;;26.20;13.88;;;1.40;99.90;;;;;;4894075;29;20051;-77
2023/01/26 09:45:11;;;;;;;26.52;14.45;;;1.40;99.90;;;;;;4906746;29;20095;-77
2023/01/26 09:47:55;;;;;;;22.77;12.90;;;1.40;99.90;;;;;;4902787;29;20059;-77
2023/01/26 09:50:27;;;;;;;27.02;14.95;;;1.40;99.90;;;;;;4885665;29;20045;-77
2023/01/26 09:53:02;;;;;;;24.83;13.93;;;1.40;99.90;;;;;;4899811;29;20084;-77
2023/01/26 09:55:30;;;;;;;27.70;14.95;;;1.40;99.90;;;;;;4905747;29;20052;-77
2023/01/26 09:58:06;;;;;;;28.23;15.07;;;1.40;99.90;;;;;;4909776;29;20060;-77
2023/01/26 10:00:42;;;;;;;29.42;15.70;;;1.40;99.90;;;;;;4892087;29;20495;-78
2023/01/26 10:03:18;;;;;;;29.65;14.98;;;1.40;99.90;;;;;;4905356;29;20091;-78
2023/01/26 10:06:09;;;;;;;26.33;14.45;;;1.50;99.90;;;;;;4888296;29;20529;-77
2023/01/26 10:08:36;;;;;;;26.90;14.40;;;1.50;99.90;;;;;;4910219;29;20392;-77
2023/01/26 10:11:13;;;;;;;26.13;14.20;;;1.50;99.90;;;;;;4909401;29;20099;-77
2023/01/26 10:13:52;;;;;;;26.92;14.57;;;1.60;99.90;;;;;;4903095;29;20044;-77
2023/01/26 10:16:23;;;;;;;24.58;14.43;;;1.60;99.90;;;;;;4901156;29;20060;-77
2023/01/26 10:19:04;;;;;;;24.88;13.25;;;1.60;99.90;;;;;;4911832;29;20135;-77
2023/01/26 10:21:36;;;;;;;24.75;14.73;;;1.60;99.90;;;;;;4893954;29;20108;-77
2023/01/26 10:24:04;;;;;;;23.52;12.93;;;1.70;99.90;;;;;;4912790;29;20056;-77
2023/01/26 10:26:33;;;;;;;25.95;14.45;;;1.60;99.90;;;;;;4910865;29;20084;-77
2023/01/26 10:29:00;;;;;;;24.83;13.40;;;1.70;99.90;;;;;;4906668;29;20088;-78
2023/01/26 10:31:29;;;;;;;24.33;13.48;;;1.70;99.90;;;;;;4903778;29;20053;-77
2023/01/26 10:34:21;;;;;;;21.27;12.18;;;1.70;99.90;;;;;;4889313;29;20100;-77
2023/01/26 10:36:47;;;;;;;22.92;12.02;;;1.60;99.90;;;;;;4909436;29;20048;-78
2023/01/26 10:39:16;;;;;;;20.83;11.85;;;1.60;99.90;;;;;;4908562;29;20044;-77
2023/01/26 10:41:59;;;;;;;22.67;13.05;;;1.60;99.90;;;;;;4904299;29;20048;-77
2023/01/26 10:44:33;;;;;;;20.88;11.82;;;1.70;99.90;;;;;;4906597;29;20481;-77
2023/01/26 10:47:12;;;;;;;17.90;10.68;;;1.70;99.90;;;;;;4909257;29;20072;-77
2023/01/26 10:49:39;;;;;;;24.02;12.07;;;1.80;99.90;;;;;;4891700;29;20088;-77
2023/01/26 10:52:21;;;;;;;25.55;14.48;;;1.80;99.90;;;;;;4918117;29;20520;-77
2023/01/26 10:54:50;;;;;;;30.25;16.20;;;1.70;99.90;;;;;;4914800;29;20386;-77
2023/01/26 10:57:23;;;;;;;28.15;15.98;;;1.70;99.90;;;;;;4908812;29;20056;-77
2023/01/26 10:59:54;;;;;;;28.42;15.05;;;1.70;99.90;;;;;;4902762;29;20059;-78
2023/01/26 11:02:27;;;;;;;27.67;14.73;;;1.50;99.90;;;;;;4909071;29;20164;-77
2023/01/26 11:05:06;;;;;;;28.73;13.80;;;1.60;99.90;;;;;;4908751;29;20585;-77
2023/01/26 11:07:34;;;;;;;26.40;15.02;;;1.60;99.90;;;;;;4911716;29;20050;-77
2023/01/26 11:10:20;;;;;;;29.55;16.33;;;1.60;99.90;;;;;;4910714;29;20058;-77
2023/01/26 11:12:48;;;;;;;26.80;14.88;;;1.70;99.90;;;;;;4904074;29;20045;-77
2023/01/26 11:15:23;;;;;;;27.40;15.15;;;1.70;99.90;;;;;;4905518;29;20052;-77
2023/01/26 11:18:31;;;;;;;26.02;15.00;;;1.70;99.90;;;;;;4907690;29;20052;-77
2023/01/26 11:21:31;;;;;;;28.42;14.82;;;1.80;99.90;;;;;;4908488;29;20100;-77
2023/01/26 11:24:25;;;;;;;27.92;15.73;;;1.90;99.90;;;;;;4903753;29;20080;-77
2023/01/26 11:27:09;;;;;;;29.23;15.85;;;1.90;99.90;;;;;;4900998;29;20048;-77
2023/01/26 11:29:56;;;;;;;28.35;16.05;;;1.90;99.90;;;;;;4911141;29;20092;-77
2023/01/26 11:32:38;;;;;;;27.48;15.82;;;1.90;99.90;;;;;;4909988;29;20052;-78
2023/01/26 11:35:14;;;;;;;29.35;15.73;;;2.00;99.90;;;;;;4908803;29;20127;-77
2023/01/26 11:37:48;;;;;;;27.75;15.68;;;2.00;99.90;;;;;;4903126;29;20056;-77
2023/01/26 11:40:33;;;;;;;26.98;14.82;;;2.00;99.90;;;;;;4902945;29;20066;-77
2023/01/26 11:43:05;;;;;;;25.00;14.75;;;2.00;99.90;;;;;;4903774;29;20056;-77
2023/01/26 11:46:02;;;;;;;24.58;13.98;;;2.00;99.90;;;;;;4907514;29;20057;-77
2023/01/26 11:48:56;;;;;;;26.63;14.65;;;2.10;99.90;;;;;;4906226;29;20056;-78
2023/01/26 11:51:58;;;;;;;35.47;18.50;;;2.10;99.90;;;;;;4901773;29;20057;-77
2023/01/26 11:54:37;;;;;;;24.77;13.82;;;2.20;99.90;;;;;;4891987;29;20056;-78
2023/01/26 11:57:26;;;;;;;23.48;13.38;;;2.10;99.90;;;;;;4909493;29;20048;-78
2023/01/26 12:00:04;;;;;;;28.10;14.20;;;1.90;99.90;;;;;;4910720;29;20053;-78
2023/01/26 12:02:33;;;;;;;22.80;13.13;;;2.00;99.90;;;;;;4891600;29;20048;-78
2023/01/26 12:05:11;;;;;;;26.38;13.82;;;2.10;99.90;;;;;;4911274;29;20104;-77
2023/01/26 12:08:14;;;;;;;22.70;13.32;;;2.20;99.90;;;;;;4905812;29;20075;-77
2023/01/26 12:10:49;;;;;;;25.92;14.35;;;2.20;99.90;;;;;;4856156;29;20513;-78
2023/01/26 12:13:39;;;;;;;24.20;13.32;;;2.30;99.90;;;;;;4910648;29;20135;-78
2023/01/26 12:16:41;;;;;;;22.80;13.50;;;2.30;99.90;;;;;;4915018;29;20068;-77
2023/01/26 12:19:49;;;;;;;20.50;12.70;;;2.30;99.90;;;;;;4914211;29;20064;-78
2023/01/26 12:22:34;;;;;;;22.73;13.00;;;2.30;99.90;;;;;;4910795;29;20576;-78
2023/01/26 12:25:12;;;;;;;23.50;13.93;;;2.30;99.90;;;;;;4909464;29;20132;-78
2023/01/26 12:28:21;;;;;;;25.67;12.50;;;2.40;99.90;;;;;;4910063;29;20056;-78
2023/01/26 12:30:58;;;;;;;21.35;12.98;;;2.40;99.90;;;;;;4881050;29;20131;-78
2023/01/26 12:33:25;;;;;;;24.42;13.13;;;2.50;99.90;;;;;;4905233;29;20052;-78
2023/01/26 12:36:12;;;;;;;19.83;10.77;;;2.40;99.90;;;;;;4886704;29;20127;-78
2023/01/26 12:39:04;;;;;;;22.98;13.30;;;2.40;99.90;;;;;;4876113;29;20055;-77
2023/01/26 12:41:31;;;;;;;20.42;11.85;;;2.40;99.90;;;;;;4919896;29;20048;-77
2023/01/26 12:44:13;;;;;;;23.73;13.30;;;2.40;99.90;;;;;;4929521;29;20079;-77
2023/01/26 12:46:45;;;;;;;22.60;12.00;;;2.30;99.90;;;;;;4926211;29;20084;-77
2023/01/26 12:49:21;;;;;;;23.38;12.63;;;2.30;99.90;;;;;;4921285;29;20072;-81
2023/01/26 12:51:55;;;;;;;21.88;13.15;;;2.30;99.90;;;;;;4916756;29;20049;-77
2023/01/26 12:54:42;;;;;;;22.58;13.50;;;2.30;99.90;;;;;;4904408;29;20044;-77
2023/01/26 12:57:21;;;;;;;33.72;19.13;;;2.30;99.90;;;;;;4910056;29;20422;-77
2023/01/26 12:59:48;;;;;;;23.80;13.15;;;2.30;99.90;;;;;;4907197;29;20088;-77
2023/01/26 13:02:15;;;;;;;24.92;14.55;;;2.30;99.90;;;;;;4903863;29;20048;-78
2023/01/26 13:04:43;;;;;;;23.13;13.00;;;2.20;99.90;;;;;;4908468;29;20049;-77
2023/01/26 13:07:30;;;;;;;23.88;12.80;;;2.20;99.90;;;;;;4907701;29;20063;-77
2023/01/26 13:10:16;;;;;;;20.08;11.93;;;2.20;99.90;;;;;;4909073;29;20101;-77
2023/01/26 13:12:50;;;;;;;25.55;14.13;;;2.20;99.90;;;;;;4909021;29;20395;-77
2023/01/26 13:15:20;;;;;;;23.75;12.68;;;2.20;99.90;;;;;;4906586;29;20052;-77
2023/01/26 13:17:53;;;;;;;26.85;14.02;;;2.30;99.90;;;;;;4902658;29;20479;-77
2023/01/26 13:20:41;;;;;;;27.23;13.65;;;2.20;99.90;;;;;;4900552;29;20519;-77
2023/01/26 13:23:41;;;;;;;25.67;13.80;;;2.30;99.90;;;;;;4907869;29;20123;-77
2023/01/26 13:26:20;;;;;;;25.08;14.00;;;2.30;99.90;;;;;;4908223;29;20492;-77
2023/01/26 13:28:48;;;;;;;25.58;14.38;;;2.30;99.90;;;;;;4911605;29;20539;-77
2023/01/26 13:31:32;;;;;;;22.98;13.80;;;2.30;99.90;;;;;;4909516;29;20044;-77
2023/01/26 13:34:05;;;;;;;24.67;13.70;;;2.30;99.90;;;;;;4904353;29;20072;-77
2023/01/26 13:36:35;;;;;;;23.10;13.57;;;2.30;99.90;;;;;;4902581;29;20499;-77
2023/01/26 13:39:17;;;;;;;27.13;14.45;;;2.30;99.90;;;;;;4909235;29;20062;-77
2023/01/26 13:41:47;;;;;;;32.03;15.07;;;2.30;99.90;;;;;;4907029;29;20058;-77
2023/01/26 13:44:19;;;;;;;;;;;2.30;99.90;;;;;;4907020;29;20120;-77